sensor_id;sensor_type;location;lat;lon;timestamp;pressure;altitude;pressure_sealevel;temperature;humidity
65546;BME280;52177;55.968;37.498;2024-01-30T00:00:01;100803.06;;;-1.34;86.49
65546;BME280;52177;55.968;37.498;2024-01-30T00:00:32;100794.31;;;-1.33;86.47
65546;BME280;52177;55.968;37.498;2024-01-30T00:01:02;100797.72;;;-1.31;86.31
65546;BME280;52177;55.968;37.498;2024-01-30T00:01:32;100792.47;;;-1.31;86.42
65546;BME280;52177;55.968;37.498;2024-01-30T00:02:03;100800.31;;;-1.31;86.23
65546;BME280;52177;55.968;37.498;2024-01-30T00:02:33;100796.00;;;-1.32;86.35
65546;BME280;52177;55.968;37.498;2024-01-30T00:03:04;100794.31;;;-1.33;86.38
65546;BME280;52177;55.968;37.498;2024-01-30T00:03:34;100805.56;;;-1.31;86.45
65546;BME280;52177;55.968;37.498;2024-01-30T00:04:07;100809.94;;;-1.31;86.49
65546;BME280;52177;55.968;37.498;2024-01-30T00:04:38;100797.78;;;-1.32;86.54
65546;BME280;52177;55.968;37.498;2024-01-30T00:05:08;100803.00;;;-1.32;86.52
65546;BME280;52177;55.968;37.498;2024-01-30T00:05:39;100799.53;;;-1.33;86.36
65546;BME280;52177;55.968;37.498;2024-01-30T00:06:10;100809.16;;;-1.33;86.42
65546;BME280;52177;55.968;37.498;2024-01-30T00:06:41;100807.47;;;-1.34;86.57
65546;BME280;52177;55.968;37.498;2024-01-30T00:07:11;100800.53;;;-1.35;86.58
65546;BME280;52177;55.968;37.498;2024-01-30T00:07:41;100803.16;;;-1.35;86.62
65546;BME280;52177;55.968;37.498;2024-01-30T00:08:11;100798.78;;;-1.35;86.56
65546;BME280;52177;55.968;37.498;2024-01-30T00:08:42;100797.78;;;-1.32;86.54
65546;BME280;52177;55.968;37.498;2024-01-30T00:09:12;100796.00;;;-1.32;86.43
65546;BME280;52177;55.968;37.498;2024-01-30T00:09:46;100802.16;;;-1.33;86.46
65546;BME280;52177;55.968;37.498;2024-01-30T00:10:17;100791.75;;;-1.34;86.52
65546;BME280;52177;55.968;37.498;2024-01-30T00:10:47;100803.22;;;-1.37;86.63
65546;BME280;52177;55.968;37.498;2024-01-30T00:11:17;100804.00;;;-1.35;86.60
65546;BME280;52177;55.968;37.498;2024-01-30T00:11:48;100798.72;;;-1.33;86.62
65546;BME280;52177;55.968;37.498;2024-01-30T00:12:18;100797.84;;;-1.34;86.56
65546;BME280;52177;55.968;37.498;2024-01-30T00:12:48;100795.22;;;-1.34;86.56
65546;BME280;52177;55.968;37.498;2024-01-30T00:13:19;100799.59;;;-1.34;86.47
65546;BME280;52177;55.968;37.498;2024-01-30T00:13:50;100798.72;;;-1.33;86.70
65546;BME280;52177;55.968;37.498;2024-01-30T00:14:20;100796.00;;;-1.32;86.53
65546;BME280;52177;55.968;37.498;2024-01-30T00:14:50;100798.78;;;-1.35;86.46
65546;BME280;52177;55.968;37.498;2024-01-30T00:15:20;100804.06;;;-1.36;86.47
65546;BME280;52177;55.968;37.498;2024-01-30T00:15:51;100800.59;;;-1.37;86.59
65546;BME280;52177;55.968;37.498;2024-01-30T00:16:25;100793.53;;;-1.35;86.56
65546;BME280;52177;55.968;37.498;2024-01-30T00:16:55;100794.47;;;-1.36;86.53
65546;BME280;52177;55.968;37.498;2024-01-30T00:17:28;100791.84;;;-1.36;86.69
65546;BME280;52177;55.968;37.498;2024-01-30T00:17:58;100804.84;;;-1.34;86.59
65546;BME280;52177;55.968;37.498;2024-01-30T00:18:29;100791.75;;;-1.34;86.67
65546;BME280;52177;55.968;37.498;2024-01-30T00:18:59;100794.53;;;-1.37;86.70
65546;BME280;52177;55.968;37.498;2024-01-30T00:19:32;100790.97;;;-1.36;86.74
65546;BME280;52177;55.968;37.498;2024-01-30T00:20:03;100798.72;;;-1.33;86.80
65546;BME280;52177;55.968;37.498;2024-01-30T00:20:35;100789.09;;;-1.33;86.77
65546;BME280;52177;55.968;37.498;2024-01-30T00:21:06;100795.09;;;-1.31;86.60
65546;BME280;52177;55.968;37.498;2024-01-30T00:21:36;100791.63;;;-1.31;86.55
65546;BME280;52177;55.968;37.498;2024-01-30T00:22:06;100792.47;;;-1.31;86.62
65546;BME280;52177;55.968;37.498;2024-01-30T00:22:37;100789.94;;;-1.32;86.73
65546;BME280;52177;55.968;37.498;2024-01-30T00:23:08;100783.06;;;-1.35;86.66
65546;BME280;52177;55.968;37.498;2024-01-30T00:23:38;100789.16;;;-1.34;86.78
65546;BME280;52177;55.968;37.498;2024-01-30T00:24:09;100787.38;;;-1.34;86.70
65546;BME280;52177;55.968;37.498;2024-01-30T00:24:39;100789.94;;;-1.32;86.76
65546;BME280;52177;55.968;37.498;2024-01-30T00:25:09;100791.69;;;-1.33;86.67
65546;BME280;52177;55.968;37.498;2024-01-30T00:25:42;100789.94;;;-1.32;86.64
65546;BME280;52177;55.968;37.498;2024-01-30T00:26:13;100794.31;;;-1.33;86.61
65546;BME280;52177;55.968;37.498;2024-01-30T00:26:44;100790.75;;;-1.32;86.59
65546;BME280;52177;55.968;37.498;2024-01-30T00:27:18;100790.84;;;-1.33;86.60
65546;BME280;52177;55.968;37.498;2024-01-30T00:27:48;100788.31;;;-1.35;86.73
65546;BME280;52177;55.968;37.498;2024-01-30T00:28:19;100789.31;;;-1.37;86.85
65546;BME280;52177;55.968;37.498;2024-01-30T00:28:49;100789.38;;;-1.39;86.85
65546;BME280;52177;55.968;37.498;2024-01-30T00:29:19;100785.84;;;-1.38;86.99
65546;BME280;52177;55.968;37.498;2024-01-30T00:29:50;100794.53;;;-1.37;86.92
65546;BME280;52177;55.968;37.498;2024-01-30T00:30:20;100784.13;;;-1.39;86.98
65546;BME280;52177;55.968;37.498;2024-01-30T00:30:51;100785.75;;;-1.36;87.06
65546;BME280;52177;55.968;37.498;2024-01-30T00:31:21;100785.69;;;-1.35;86.90
65546;BME280;52177;55.968;37.498;2024-01-30T00:31:52;100783.91;;;-1.34;86.83
65546;BME280;52177;55.968;37.498;2024-01-30T00:32:23;100797.00;;;-1.34;86.94
65546;BME280;52177;55.968;37.498;2024-01-30T00:32:54;100787.53;;;-1.37;86.73
65546;BME280;52177;55.968;37.498;2024-01-30T00:33:24;100786.63;;;-1.36;86.83
65546;BME280;52177;55.968;37.498;2024-01-30T00:33:54;100788.47;;;-1.38;86.92
65546;BME280;52177;55.968;37.498;2024-01-30T00:34:25;100795.38;;;-1.37;87.08
65546;BME280;52177;55.968;37.498;2024-01-30T00:34:55;100795.31;;;-1.35;87.07
65546;BME280;52177;55.968;37.498;2024-01-30T00:35:26;100790.09;;;-1.35;86.93
65546;BME280;52177;55.968;37.498;2024-01-30T00:35:57;100789.16;;;-1.34;86.95
65546;BME280;52177;55.968;37.498;2024-01-30T00:36:27;100791.75;;;-1.34;86.96
65546;BME280;52177;55.968;37.498;2024-01-30T00:37:00;100790.00;;;-1.34;86.90
65546;BME280;52177;55.968;37.498;2024-01-30T00:37:30;100781.41;;;-1.36;86.97
65546;BME280;52177;55.968;37.498;2024-01-30T00:38:01;100783.13;;;-1.36;86.89
65546;BME280;52177;55.968;37.498;2024-01-30T00:38:32;100789.03;;;-1.31;86.81
65546;BME280;52177;55.968;37.498;2024-01-30T00:39:02;100794.31;;;-1.33;86.89
65546;BME280;52177;55.968;37.498;2024-01-30T00:39:36;100790.75;;;-1.32;86.82
65546;BME280;52177;55.968;37.498;2024-01-30T00:40:07;100792.47;;;-1.31;86.77
65546;BME280;52177;55.968;37.498;2024-01-30T00:40:37;100783.69;;;-1.30;86.75
65546;BME280;52177;55.968;37.498;2024-01-30T00:41:08;100785.41;;;-1.29;86.80
65546;BME280;52177;55.968;37.498;2024-01-30T00:41:39;100790.69;;;-1.30;86.74
65546;BME280;52177;55.968;37.498;2024-01-30T00:42:09;100777.56;;;-1.29;86.63
65546;BME280;52177;55.968;37.498;2024-01-30T00:42:40;100786.94;;;-1.24;86.69
65546;BME280;52177;55.968;37.498;2024-01-30T00:43:10;100786.09;;;-1.25;86.67
65546;BME280;52177;55.968;37.498;2024-01-30T00:43:40;100786.16;;;-1.27;86.62
65546;BME280;52177;55.968;37.498;2024-01-30T00:44:11;100787.09;;;-1.28;86.66
65546;BME280;52177;55.968;37.498;2024-01-30T00:44:41;100788.72;;;-1.25;86.50
65546;BME280;52177;55.968;37.498;2024-01-30T00:45:15;100780.84;;;-1.25;86.48
65546;BME280;52177;55.968;37.498;2024-01-30T00:45:45;100779.94;;;-1.24;86.53
65546;BME280;52177;55.968;37.498;2024-01-30T00:46:16;100782.69;;;-1.27;86.41
65546;BME280;52177;55.968;37.498;2024-01-30T00:46:46;100773.84;;;-1.24;86.44
65546;BME280;52177;55.968;37.498;2024-01-30T00:47:16;100775.63;;;-1.25;86.45
65546;BME280;52177;55.968;37.498;2024-01-30T00:47:47;100779.19;;;-1.26;86.43
65546;BME280;52177;55.968;37.498;2024-01-30T00:48:18;100780.78;;;-1.23;86.30
65546;BME280;52177;55.968;37.498;2024-01-30T00:48:48;100774.78;;;-1.25;86.38
65546;BME280;52177;55.968;37.498;2024-01-30T00:49:18;100770.47;;;-1.27;86.37
65546;BME280;52177;55.968;37.498;2024-01-30T00:49:49;100775.00;;;-1.30;86.34
65546;BME280;52177;55.968;37.498;2024-01-30T00:50:19;100776.78;;;-1.31;86.43
65546;BME280;52177;55.968;37.498;2024-01-30T00:50:50;100774.06;;;-1.29;86.49
65546;BME280;52177;55.968;37.498;2024-01-30T00:51:20;100788.78;;;-1.27;86.39
65546;BME280;52177;55.968;37.498;2024-01-30T00:51:51;100776.63;;;-1.28;86.50
65546;BME280;52177;55.968;37.498;2024-01-30T00:52:21;100783.63;;;-1.28;86.47
65546;BME280;52177;55.968;37.498;2024-01-30T00:52:51;100771.47;;;-1.29;86.54
65546;BME280;52177;55.968;37.498;2024-01-30T00:53:22;100775.94;;;-1.31;86.54
65546;BME280;52177;55.968;37.498;2024-01-30T00:53:52;100786.41;;;-1.31;86.67
65546;BME280;52177;55.968;37.498;2024-01-30T00:54:25;100781.91;;;-1.29;86.66
65546;BME280;52177;55.968;37.498;2024-01-30T00:54:56;100776.78;;;-1.31;86.45
65546;BME280;52177;55.968;37.498;2024-01-30T00:55:26;100779.31;;;-1.29;86.65
65546;BME280;52177;55.968;37.498;2024-01-30T00:55:56;100779.31;;;-1.29;86.62
65546;BME280;52177;55.968;37.498;2024-01-30T00:56:27;100781.78;;;-1.26;86.64
65546;BME280;52177;55.968;37.498;2024-01-30T00:56:57;100779.25;;;-1.28;86.61
65546;BME280;52177;55.968;37.498;2024-01-30T00:57:28;100779.19;;;-1.26;86.55
65546;BME280;52177;55.968;37.498;2024-01-30T00:58:01;100775.69;;;-1.27;86.55
65546;BME280;52177;55.968;37.498;2024-01-30T00:58:31;100781.06;;;-1.30;86.54
65546;BME280;52177;55.968;37.498;2024-01-30T00:59:02;100779.47;;;-1.32;86.71
65546;BME280;52177;55.968;37.498;2024-01-30T00:59:32;100780.31;;;-1.32;86.79
65546;BME280;52177;55.968;37.498;2024-01-30T01:00:03;100785.31;;;-1.27;86.90
65546;BME280;52177;55.968;37.498;2024-01-30T01:00:35;100783.78;;;-1.31;86.74
65546;BME280;52177;55.968;37.498;2024-01-30T01:01:05;100782.91;;;-1.32;86.84
65546;BME280;52177;55.968;37.498;2024-01-30T01:01:37;100778.47;;;-1.30;86.84
65546;BME280;52177;55.968;37.498;2024-01-30T01:02:07;100778.41;;;-1.28;86.76
65546;BME280;52177;55.968;37.498;2024-01-30T01:02:38;100787.03;;;-1.26;86.66
65546;BME280;52177;55.968;37.498;2024-01-30T01:03:11;100775.84;;;-1.30;86.82
65546;BME280;52177;55.968;37.498;2024-01-30T01:03:42;100780.19;;;-1.29;86.75
65546;BME280;52177;55.968;37.498;2024-01-30T01:04:13;100785.41;;;-1.29;86.72
65546;BME280;52177;55.968;37.498;2024-01-30T01:04:44;100780.03;;;-1.25;86.75
65546;BME280;52177;55.968;37.498;2024-01-30T01:05:15;100785.19;;;-1.24;86.66
65546;BME280;52177;55.968;37.498;2024-01-30T01:05:45;100787.72;;;-1.22;86.63
65546;BME280;52177;55.968;37.498;2024-01-30T01:06:15;100783.25;;;-1.20;86.57
65546;BME280;52177;55.968;37.498;2024-01-30T01:06:46;100780.47;;;-1.17;86.49
65546;BME280;52177;55.968;37.498;2024-01-30T01:07:16;100775.34;;;-1.19;86.32
65546;BME280;52177;55.968;37.498;2024-01-30T01:07:46;100770.22;;;-1.22;86.32
65546;BME280;52177;55.968;37.498;2024-01-30T01:08:18;100777.34;;;-1.24;86.38
65546;BME280;52177;55.968;37.498;2024-01-30T01:08:48;100773.72;;;-1.21;86.40
65546;BME280;52177;55.968;37.498;2024-01-30T01:09:18;100767.50;;;-1.19;86.28
65546;BME280;52177;55.968;37.498;2024-01-30T01:09:49;100767.41;;;-1.17;86.36
65546;BME280;52177;55.968;37.498;2024-01-30T01:10:19;100773.41;;;-1.15;86.27
65546;BME280;52177;55.968;37.498;2024-01-30T01:10:50;100767.34;;;-1.16;86.12
65546;BME280;52177;55.968;37.498;2024-01-30T01:11:20;100765.50;;;-1.14;86.15
65546;BME280;52177;55.968;37.498;2024-01-30T01:11:50;100776.19;;;-1.18;86.11
65546;BME280;52177;55.968;37.498;2024-01-30T01:12:21;100770.94;;;-1.18;86.05
65546;BME280;52177;55.968;37.498;2024-01-30T01:12:51;100765.72;;;-1.18;86.06
65546;BME280;52177;55.968;37.498;2024-01-30T01:13:21;100770.09;;;-1.19;86.19
65546;BME280;52177;55.968;37.498;2024-01-30T01:13:51;100772.94;;;-1.23;86.33
65546;BME280;52177;55.968;37.498;2024-01-30T01:14:22;100775.56;;;-1.23;86.41
65546;BME280;52177;55.968;37.498;2024-01-30T01:14:52;100773.00;;;-1.25;86.32
65546;BME280;52177;55.968;37.498;2024-01-30T01:15:22;100772.09;;;-1.24;86.40
65546;BME280;52177;55.968;37.498;2024-01-30T01:15:53;100768.63;;;-1.24;86.35
65546;BME280;52177;55.968;37.498;2024-01-30T01:16:23;100770.41;;;-1.25;86.55
65546;BME280;52177;55.968;37.498;2024-01-30T01:16:53;100772.94;;;-1.23;86.41
65546;BME280;52177;55.968;37.498;2024-01-30T01:17:24;100765.09;;;-1.23;86.42
65546;BME280;52177;55.968;37.498;2024-01-30T01:17:54;100769.41;;;-1.22;86.43
65546;BME280;52177;55.968;37.498;2024-01-30T01:18:24;100763.31;;;-1.23;86.46
65546;BME280;52177;55.968;37.498;2024-01-30T01:18:55;100769.41;;;-1.22;86.53
65546;BME280;52177;55.968;37.498;2024-01-30T01:19:25;100758.09;;;-1.23;86.56
65546;BME280;52177;55.968;37.498;2024-01-30T01:19:56;100763.25;;;-1.21;86.52
65546;BME280;52177;55.968;37.498;2024-01-30T01:20:26;100768.41;;;-1.20;86.47
65546;BME280;52177;55.968;37.498;2024-01-30T01:20:57;100770.09;;;-1.19;86.40
65546;BME280;52177;55.968;37.498;2024-01-30T01:21:27;100766.56;;;-1.18;86.44
65546;BME280;52177;55.968;37.498;2024-01-30T01:21:57;100764.03;;;-1.19;86.34
65546;BME280;52177;55.968;37.498;2024-01-30T01:22:28;100759.53;;;-1.17;86.39
65546;BME280;52177;55.968;37.498;2024-01-30T01:22:58;100761.31;;;-1.18;86.42
65546;BME280;52177;55.968;37.498;2024-01-30T01:23:28;100760.53;;;-1.20;86.37
65546;BME280;52177;55.968;37.498;2024-01-30T01:23:59;100757.94;;;-1.20;86.30
65546;BME280;52177;55.968;37.498;2024-01-30T01:24:32;100760.47;;;-1.18;86.40
65546;BME280;52177;55.968;37.498;2024-01-30T01:25:03;100761.41;;;-1.19;86.42
65546;BME280;52177;55.968;37.498;2024-01-30T01:25:33;100759.66;;;-1.19;86.35
65546;BME280;52177;55.968;37.498;2024-01-30T01:26:04;100758.81;;;-1.19;86.51
65546;BME280;52177;55.968;37.498;2024-01-30T01:26:34;100759.88;;;-1.23;86.71
65546;BME280;52177;55.968;37.498;2024-01-30T01:27:05;100750.19;;;-1.21;86.72
65546;BME280;52177;55.968;37.498;2024-01-30T01:27:36;100741.47;;;-1.22;86.76
65546;BME280;52177;55.968;37.498;2024-01-30T01:28:10;100743.16;;;-1.21;86.71
65546;BME280;52177;55.968;37.498;2024-01-30T01:28:41;100747.47;;;-1.20;86.77
65546;BME280;52177;55.968;37.498;2024-01-30T01:29:11;100755.31;;;-1.20;86.68
65546;BME280;52177;55.968;37.498;2024-01-30T01:29:42;100746.47;;;-1.17;86.62
65546;BME280;52177;55.968;37.498;2024-01-30T01:30:13;100742.94;;;-1.16;86.58
65546;BME280;52177;55.968;37.498;2024-01-30T01:30:49;100742.94;;;-1.16;86.68
65546;BME280;52177;55.968;37.498;2024-01-30T01:31:19;100746.41;;;-1.16;86.49
65546;BME280;52177;55.968;37.498;2024-01-30T01:31:52;100736.88;;;-1.17;86.62
65546;BME280;52177;55.968;37.498;2024-01-30T01:32:23;100745.50;;;-1.15;86.59
65546;BME280;52177;55.968;37.498;2024-01-30T01:32:53;100747.13;;;-1.12;86.56
65546;BME280;52177;55.968;37.498;2024-01-30T01:33:27;100754.97;;;-1.12;86.49
65546;BME280;52177;55.968;37.498;2024-01-30T01:33:58;100756.69;;;-1.13;86.33
65546;BME280;52177;55.968;37.498;2024-01-30T01:34:28;100752.34;;;-1.12;86.48
65546;BME280;52177;55.968;37.498;2024-01-30T01:34:58;100758.47;;;-1.13;86.47
65546;BME280;52177;55.968;37.498;2024-01-30T01:35:29;100760.19;;;-1.12;86.50
65546;BME280;52177;55.968;37.498;2024-01-30T01:36:00;100756.47;;;-1.08;86.43
65546;BME280;52177;55.968;37.498;2024-01-30T01:36:32;100753.88;;;-1.08;86.38
65546;BME280;52177;55.968;37.498;2024-01-30T01:37:03;100759.09;;;-1.08;86.33
65546;BME280;52177;55.968;37.498;2024-01-30T01:37:33;100753.97;;;-1.10;86.33
65546;BME280;52177;55.968;37.498;2024-01-30T01:38:03;100755.56;;;-1.07;86.34
65546;BME280;52177;55.968;37.498;2024-01-30T01:38:34;100759.97;;;-1.08;86.32
65546;BME280;52177;55.968;37.498;2024-01-30T01:39:04;100754.78;;;-1.09;86.32
65546;BME280;52177;55.968;37.498;2024-01-30T01:39:35;100766.09;;;-1.09;86.33
65546;BME280;52177;55.968;37.498;2024-01-30T01:40:06;100758.25;;;-1.09;86.48
65546;BME280;52177;55.968;37.498;2024-01-30T01:40:39;100760.88;;;-1.09;86.53
65546;BME280;52177;55.968;37.498;2024-01-30T01:41:11;100760.81;;;-1.07;86.48
65546;BME280;52177;55.968;37.498;2024-01-30T01:41:41;100761.72;;;-1.08;86.50
65546;BME280;52177;55.968;37.498;2024-01-30T01:42:12;100763.31;;;-1.06;86.51
65546;BME280;52177;55.968;37.498;2024-01-30T01:42:42;100760.56;;;-1.02;86.46
65546;BME280;52177;55.968;37.498;2024-01-30T01:43:12;100773.56;;;-1.01;86.36
65546;BME280;52177;55.968;37.498;2024-01-30T01:43:43;100765.72;;;-1.01;86.41
65546;BME280;52177;55.968;37.498;2024-01-30T01:44:13;100760.56;;;-1.02;86.30
65546;BME280;52177;55.968;37.498;2024-01-30T01:44:43;100764.09;;;-1.03;86.31
65546;BME280;52177;55.968;37.498;2024-01-30T01:45:14;100768.34;;;-1.01;86.46
65546;BME280;52177;55.968;37.498;2024-01-30T01:45:45;100764.88;;;-1.01;86.42
65546;BME280;52177;55.968;37.498;2024-01-30T01:46:17;100758.81;;;-1.02;86.35
65546;BME280;52177;55.968;37.498;2024-01-30T01:46:47;100766.59;;;-1.00;86.42
65546;BME280;52177;55.968;37.498;2024-01-30T01:47:18;100763.09;;;-1.01;86.45
65546;BME280;52177;55.968;37.498;2024-01-30T01:47:52;100761.19;;;-0.97;86.31
65546;BME280;52177;55.968;37.498;2024-01-30T01:48:22;100754.28;;;-0.98;86.37
65546;BME280;52177;55.968;37.498;2024-01-30T01:48:54;100756.13;;;-1.00;86.40
65546;BME280;52177;55.968;37.498;2024-01-30T01:49:27;100757.63;;;-0.96;86.40
65546;BME280;52177;55.968;37.498;2024-01-30T01:49:59;100762.75;;;-0.93;86.41
65546;BME280;52177;55.968;37.498;2024-01-30T01:50:30;100758.50;;;-0.96;86.19
65546;BME280;52177;55.968;37.498;2024-01-30T01:51:00;100756.63;;;-0.94;86.13
65546;BME280;52177;55.968;37.498;2024-01-30T01:51:33;100753.94;;;-0.92;86.12
65546;BME280;52177;55.968;37.498;2024-01-30T01:52:04;100760.91;;;-0.91;86.13
65546;BME280;52177;55.968;37.498;2024-01-30T01:52:36;100757.56;;;-0.95;86.09
65546;BME280;52177;55.968;37.498;2024-01-30T01:53:07;100755.78;;;-0.94;86.30
65546;BME280;52177;55.968;37.498;2024-01-30T01:53:38;100756.56;;;-0.92;86.16
65546;BME280;52177;55.968;37.498;2024-01-30T01:54:08;100749.50;;;-0.90;86.19
65546;BME280;52177;55.968;37.498;2024-01-30T01:54:39;100754.72;;;-0.90;86.03
65546;BME280;52177;55.968;37.498;2024-01-30T01:55:11;100760.81;;;-0.90;86.06
65546;BME280;52177;55.968;37.498;2024-01-30T01:55:42;100751.09;;;-0.88;86.21
65546;BME280;52177;55.968;37.498;2024-01-30T01:56:12;100754.56;;;-0.87;86.03
65546;BME280;52177;55.968;37.498;2024-01-30T01:56:43;100759.72;;;-0.86;85.92
65546;BME280;52177;55.968;37.498;2024-01-30T01:57:13;100752.81;;;-0.87;85.93
65546;BME280;52177;55.968;37.498;2024-01-30T01:57:44;100759.88;;;-0.89;85.88
65546;BME280;52177;55.968;37.498;2024-01-30T01:58:15;100757.41;;;-0.92;86.09
65546;BME280;52177;55.968;37.498;2024-01-30T01:58:47;100753.03;;;-0.91;86.10
65546;BME280;52177;55.968;37.498;2024-01-30T01:59:20;100749.56;;;-0.92;86.14
65546;BME280;52177;55.968;37.498;2024-01-30T01:59:52;100750.50;;;-0.93;86.18
65546;BME280;52177;55.968;37.498;2024-01-30T02:00:23;100754.88;;;-0.93;86.21
65546;BME280;52177;55.968;37.498;2024-01-30T02:00:53;100750.56;;;-0.94;86.34
65546;BME280;52177;55.968;37.498;2024-01-30T02:01:24;100744.31;;;-0.92;86.26
65546;BME280;52177;55.968;37.498;2024-01-30T02:01:55;100743.41;;;-0.91;86.24
65546;BME280;52177;55.968;37.498;2024-01-30T02:02:26;100749.31;;;-0.87;86.20
65546;BME280;52177;55.968;37.498;2024-01-30T02:03:06;100749.31;;;-0.87;86.01
65546;BME280;52177;55.968;37.498;2024-01-30T02:03:38;100750.09;;;-0.85;85.88
65546;BME280;52177;55.968;37.498;2024-01-30T02:04:08;100754.44;;;-0.84;86.01
65546;BME280;52177;55.968;37.498;2024-01-30T02:04:39;100749.25;;;-0.86;85.87
65546;BME280;52177;55.968;37.498;2024-01-30T02:05:09;100749.25;;;-0.86;85.84
65546;BME280;52177;55.968;37.498;2024-01-30T02:05:41;100749.19;;;-0.84;85.84
65546;BME280;52177;55.968;37.498;2024-01-30T02:06:13;100745.88;;;-0.88;85.91
65546;BME280;52177;55.968;37.498;2024-01-30T02:06:43;100753.94;;;-0.92;86.01
65546;BME280;52177;55.968;37.498;2024-01-30T02:07:14;100757.41;;;-0.92;86.14
65546;BME280;52177;55.968;37.498;2024-01-30T02:07:45;100757.28;;;-0.89;86.18
65546;BME280;52177;55.968;37.498;2024-01-30T02:08:15;100758.19;;;-0.90;86.05
65546;BME280;52177;55.968;37.498;2024-01-30T02:08:46;100758.94;;;-0.88;86.23
65546;BME280;52177;55.968;37.498;2024-01-30T02:09:16;100751.16;;;-0.89;86.20
65546;BME280;52177;55.968;37.498;2024-01-30T02:09:46;100752.94;;;-0.90;86.18
65546;BME280;52177;55.968;37.498;2024-01-30T02:10:17;100752.16;;;-0.92;86.18
65546;BME280;52177;55.968;37.498;2024-01-30T02:10:47;100757.28;;;-0.89;86.28
65546;BME280;52177;55.968;37.498;2024-01-30T02:11:18;100749.41;;;-0.89;86.13
65546;BME280;52177;55.968;37.498;2024-01-30T02:11:50;100749.41;;;-0.89;86.22
65546;BME280;52177;55.968;37.498;2024-01-30T02:12:20;100754.56;;;-0.87;86.09
65546;BME280;52177;55.968;37.498;2024-01-30T02:12:50;100754.56;;;-0.87;86.14
65546;BME280;52177;55.968;37.498;2024-01-30T02:13:21;100756.28;;;-0.86;86.08
65546;BME280;52177;55.968;37.498;2024-01-30T02:13:52;100751.88;;;-0.86;86.00
65546;BME280;52177;55.968;37.498;2024-01-30T02:14:22;100747.56;;;-0.87;86.08
65546;BME280;52177;55.968;37.498;2024-01-30T02:14:52;100749.31;;;-0.87;86.12
65546;BME280;52177;55.968;37.498;2024-01-30T02:15:24;100751.94;;;-0.87;86.04
65546;BME280;52177;55.968;37.498;2024-01-30T02:15:55;100759.72;;;-0.86;86.14
65546;BME280;52177;55.968;37.498;2024-01-30T02:16:25;100750.09;;;-0.85;86.20
65546;BME280;52177;55.968;37.498;2024-01-30T02:16:57;100750.94;;;-0.85;86.16
65546;BME280;52177;55.968;37.498;2024-01-30T02:17:27;100746.47;;;-0.82;86.12
65546;BME280;52177;55.968;37.498;2024-01-30T02:17:58;100738.63;;;-0.82;86.06
65546;BME280;52177;55.968;37.498;2024-01-30T02:18:28;100758.56;;;-0.80;86.05
65546;BME280;52177;55.968;37.498;2024-01-30T02:18:58;100749.19;;;-0.84;86.01
65546;BME280;52177;55.968;37.498;2024-01-30T02:19:29;100756.28;;;-0.86;86.17
65546;BME280;52177;55.968;37.498;2024-01-30T02:19:59;100758.78;;;-0.85;86.19
65546;BME280;52177;55.968;37.498;2024-01-30T02:20:30;100748.25;;;-0.83;86.09
65546;BME280;52177;55.968;37.498;2024-01-30T02:21:04;100760.50;;;-0.83;86.13
65546;BME280;52177;55.968;37.498;2024-01-30T02:21:35;100752.66;;;-0.83;86.24
65546;BME280;52177;55.968;37.498;2024-01-30T02:22:05;100755.19;;;-0.82;86.11
65546;BME280;52177;55.968;37.498;2024-01-30T02:22:36;100755.09;;;-0.80;86.22
65546;BME280;52177;55.968;37.498;2024-01-30T02:23:09;100751.56;;;-0.79;86.08
65546;BME280;52177;55.968;37.498;2024-01-30T02:23:40;100747.09;;;-0.77;86.21
65546;BME280;52177;55.968;37.498;2024-01-30T02:24:11;100745.47;;;-0.80;86.03
65546;BME280;52177;55.968;37.498;2024-01-30T02:24:41;100746.34;;;-0.79;86.06
65546;BME280;52177;55.968;37.498;2024-01-30T02:25:11;100747.19;;;-0.79;86.00
65546;BME280;52177;55.968;37.498;2024-01-30T02:25:42;100747.19;;;-0.79;85.99
65546;BME280;52177;55.968;37.498;2024-01-30T02:26:15;100745.22;;;-0.75;86.13
65546;BME280;52177;55.968;37.498;2024-01-30T02:26:46;100752.19;;;-0.74;86.03
65546;BME280;52177;55.968;37.498;2024-01-30T02:27:16;100748.63;;;-0.73;85.96
65546;BME280;52177;55.968;37.498;2024-01-30T02:27:46;100753.03;;;-0.74;85.87
65546;BME280;52177;55.968;37.498;2024-01-30T02:28:17;100748.63;;;-0.73;85.84
65546;BME280;52177;55.968;37.498;2024-01-30T02:28:47;100745.16;;;-0.74;85.79
65546;BME280;52177;55.968;37.498;2024-01-30T02:29:17;100741.59;;;-0.73;85.80
65546;BME280;52177;55.968;37.498;2024-01-30T02:29:48;100740.78;;;-0.73;85.87
65546;BME280;52177;55.968;37.498;2024-01-30T02:30:18;100745.09;;;-0.72;85.74
65546;BME280;52177;55.968;37.498;2024-01-30T02:30:49;100741.53;;;-0.71;85.77
65546;BME280;52177;55.968;37.498;2024-01-30T02:31:19;100741.59;;;-0.73;85.85
65546;BME280;52177;55.968;37.498;2024-01-30T02:31:49;100752.94;;;-0.72;85.85
65546;BME280;52177;55.968;37.498;2024-01-30T02:32:20;100739.09;;;-0.74;85.89
65546;BME280;52177;55.968;37.498;2024-01-30T02:32:50;100743.38;;;-0.73;85.89
65546;BME280;52177;55.968;37.498;2024-01-30T02:33:21;100740.69;;;-0.72;85.88
65546;BME280;52177;55.968;37.498;2024-01-30T02:33:53;100739.75;;;-0.71;85.78
65546;BME280;52177;55.968;37.498;2024-01-30T02:34:24;100743.16;;;-0.69;85.76
65546;BME280;52177;55.968;37.498;2024-01-30T02:34:54;100749.41;;;-0.71;85.61
65546;BME280;52177;55.968;37.498;2024-01-30T02:35:24;100738.16;;;-0.73;85.70
65546;BME280;52177;55.968;37.498;2024-01-30T02:35:55;100746.84;;;-0.73;85.69
65546;BME280;52177;55.968;37.498;2024-01-30T02:36:25;100742.47;;;-0.72;85.78
65546;BME280;52177;55.968;37.498;2024-01-30T02:36:56;100749.47;;;-0.73;85.78
65546;BME280;52177;55.968;37.498;2024-01-30T02:37:26;100739.88;;;-0.72;85.76
65546;BME280;52177;55.968;37.498;2024-01-30T02:37:56;100742.47;;;-0.72;85.81
65546;BME280;52177;55.968;37.498;2024-01-30T02:38:27;100746.78;;;-0.71;85.83
65546;BME280;52177;55.968;37.498;2024-01-30T02:38:57;100745.09;;;-0.72;85.71